Le Suroit — FZVN — position and weather

sailwx.info

Track history (hours):
 
Tides and Currents Weather Stations Pressure Air Temp Water Temp Dewpoint Dewpoint Depression Visibility Wind Speed Wind Dir Waves Ship Positions

Oceanographic research ship Le Suroit (France)

Detailed information on ship capabilities available from University of Delaware's Ocean Information Center.

Last reported at 2014-Jul-25 09:32 UTC. Time now 2014-Jul-28 22:43 UTC.
Position N 43°06' E 005°53'.

Length 57 m; beam 11 m.

MMSI: 227223000.

Date/timePositionNaut miles runAvg speedWind from/ knotsBaromVisibWave heightAir tempDewpointWater temp
2014-Jul-25 09:32N 43°06' E 005°53'0 0.0
2014-Jul-25 08:32N 43°06' E 005°53'0 0.0
2014-Jul-25 07:33N 43°06' E 005°53'0 0.0
2014-Jul-25 06:33N 43°06' E 005°53'0 0.0
2014-Jul-25 05:33N 43°06' E 005°53'0 0.0
2014-Jul-25 04:33N 43°06' E 005°53'0 0.0
2014-Jul-25 03:33N 43°06' E 005°53'0 0.0
2014-Jul-25 02:33N 43°06' E 005°53'0 0.0
2014-Jul-25 01:33N 43°06' E 005°53'0 0.0
2014-Jul-25 00:33N 43°06' E 005°53'0 0.0
2014-Jul-24 23:33N 43°06' E 005°53'0 0.0
2014-Jul-24 22:33N 43°06' E 005°53'0 0.0
2014-Jul-24 21:33N 43°06' E 005°53'0 0.0
2014-Jul-24 20:33N 43°06' E 005°53'0 0.0
2014-Jul-24 19:20N 43°06' E 005°53'0 0.0
2014-Jul-24 18:32N 43°06' E 005°53'0 0.0
2014-Jul-24 17:23N 43°06' E 005°53'0 0.0
2014-Jul-24 16:28N 43°06' E 005°53'0 0.0
2014-Jul-24 15:18N 43°06' E 005°53'0 0.0
2014-Jul-24 14:29N 43°06' E 005°53'0 0.0
2014-Jul-24 13:33N 43°06' E 005°53'0 0.0
2014-Jul-24 12:32N 43°06' E 005°53'0 0.0
2014-Jul-24 11:33N 43°06' E 005°53'0 0.0
2014-Jul-24 10:32N 43°06' E 005°53'0 0.0
2014-Jul-24 09:33N 43°06' E 005°53'0 0.0
2014-Jul-24 08:33N 43°06' E 005°53'0 0.0
2014-Jul-24 07:33N 43°06' E 005°53'0 0.0
2014-Jul-24 06:33N 43°06' E 005°53'0 0.0
2014-Jul-24 05:33N 43°06' E 005°53'0 0.0
2014-Jul-24 04:33N 43°06' E 005°53'0 0.0
2014-Jul-24 03:33N 43°06' E 005°53'0 0.0
2014-Jul-24 02:33N 43°06' E 005°53'0 0.0
2014-Jul-24 01:33N 43°06' E 005°53'0 0.0
2014-Jul-24 00:33N 43°06' E 005°53'0 0.0
2014-Jul-23 23:33N 43°06' E 005°53'0 0.0
2014-Jul-23 22:33N 43°06' E 005°53'0 0.0
2014-Jul-23 21:31N 43°06' E 005°53'0 0.0
2014-Jul-23 20:33N 43°06' E 005°53'0 0.0
2014-Jul-23 19:33N 43°06' E 005°53'0 0.0
2014-Jul-23 18:33N 43°06' E 005°53'0 0.0
2014-Jul-23 17:27N 43°06' E 005°53'0 0.0
2014-Jul-23 16:33N 43°06' E 005°53'0 0.0
2014-Jul-23 15:25N 43°06' E 005°53'0 0.0
2014-Jul-23 14:31N 43°06' E 005°53'0 0.0
2014-Jul-23 13:27N 43°06' E 005°53'0 0.0
2014-Jul-23 12:19N 43°06' E 005°53'0 0.0
2014-Jul-23 11:28N 43°06' E 005°53'0 0.0
2014-Jul-23 10:24N 43°06' E 005°53'0 0.0
2014-Jul-23 09:32N 43°06' E 005°53'0 0.0
2014-Jul-23 08:33N 43°06' E 005°53'0 0.0
2014-Jul-23 07:33N 43°06' E 005°53'0 0.0
2014-Jul-23 06:33N 43°06' E 005°53'0 0.0
2014-Jul-23 05:33N 43°06' E 005°53'0 0.0
2014-Jul-23 04:33N 43°06' E 005°53'0 0.0
2014-Jul-23 03:33N 43°06' E 005°53'0 0.0
2014-Jul-23 02:33N 43°06' E 005°53'0 0.0
2014-Jul-23 01:33N 43°06' E 005°53'0 0.0
2014-Jul-23 00:33N 43°06' E 005°53'0 0.0
2014-Jul-22 23:33N 43°06' E 005°53'0 0.0
2014-Jul-22 22:33N 43°06' E 005°53'0 0.0
2014-Jul-22 21:32N 43°06' E 005°53'0 0.0
2014-Jul-22 20:33N 43°06' E 005°53'0 0.0
2014-Jul-22 19:33N 43°06' E 005°53'0 0.0
2014-Jul-22 18:32N 43°06' E 005°53'0 0.0
2014-Jul-22 17:33N 43°06' E 005°53'0 0.0
2014-Jul-22 16:25N 43°06' E 005°53'0 0.1
2014-Jul-22 14:33N 43°06' E 005°53'5 4.8
2014-Jul-22 13:33N 43°03' E 005°58'11 9.9
2014-Jul-22 12:30N 43°01' E 005°43'2310.7
2014-Jul-22 10:23N 43°02' E 005°12'0 0.2
2014-Jul-22 09:27N 43°02' E 005°12'0 0.5
2014-Jul-22 08:29N 43°02' E 005°12'36 3.5
2014-Jul-21 22:09N 42°27' E 005°00'4 5.8
2014-Jul-21 21:24N 42°25' E 004°56'6 6.1
2014-Jul-21 20:27N 42°19' E 004°54'0 0.2
2014-Jul-21 20:13N 42°19' E 004°54'0 0.2
2014-Jul-21 19:29N 42°19' E 004°54'1 1.3
2014-Jul-21 18:28N 42°18' E 004°54'1010.0
2014-Jul-21 17:30N 42°09' E 004°49'32 9.8
2014-Jul-21 14:14N 41°39' E 004°33'21 4.4
2014-Jul-21 09:27N 41°18' E 004°28'0 0.2
2014-Jul-21 07:24N 41°18' E 004°28'0 0.1
2014-Jul-21 06:22N 41°18' E 004°28'42 1.9
2014-Jul-20 08:29N 40°40' E 004°07'6 4.6
2014-Jul-20 07:06N 40°46' E 004°06'0 0.0
2014-Jul-20 06:30N 40°46' E 004°06'6 4.5
2014-Jul-20 05:12N 40°51' E 004°03'7 8.3
2014-Jul-20 04:21N 40°58' E 003°60'4 4.7
2014-Jul-20 03:27N 41°02' E 003°58'0 0.1
2014-Jul-20 02:33N 41°02' E 003°58'1 0.8
2014-Jul-20 01:34N 41°01' E 003°57'2 2.3
2014-Jul-20 00:33N 41°04' E 003°57'9 8.9
2014-Jul-19 23:33N 41°12' E 003°53'8 8.3
2014-Jul-19 22:33N 41°20' E 003°50'0 0.1
2014-Jul-19 21:33N 41°20' E 003°50'3 2.4
2014-Jul-19 20:27N 41°23' E 003°49'10 8.6
2014-Jul-19 19:15N 41°32' E 003°45'1 1.0
2014-Jul-19 18:33N 41°33' E 003°45'0 0.2
2014-Jul-19 17:31N 41°33' E 003°45'8 4.1
2014-Jul-19 15:33N 41°38' E 003°36'6 5.9
2014-Jul-19 14:32N 41°42' E 003°30'7 6.4
2014-Jul-19 13:29N 41°49' E 003°30'2310.7
2014-Jul-19 11:22N 42°11' E 003°32'1010.7
2014-Jul-19 10:29N 42°21' E 003°32'5 5.2
2014-Jul-19 09:33N 42°26' E 003°32'0 0.1
2014-Jul-19 08:33N 42°26' E 003°32'0 0.2
2014-Jul-19 07:33N 42°26' E 003°32'1 0.8
2014-Jul-19 06:24N 42°27' E 003°31'1 1.6
2014-Jul-19 05:30N 42°25' E 003°32'0 0.3
2014-Jul-19 04:33N 42°26' E 003°33'1 0.7
2014-Jul-19 03:24N 42°25' E 003°33'8 8.3
2014-Jul-19 02:28N 42°21' E 003°42'2 2.2
2014-Jul-19 01:32N 42°20' E 003°44'0 0.3
2014-Jul-19 00:32N 42°20' E 003°44'6 6.3
2014-Jul-18 23:33N 42°18' E 003°52'3 3.2
2014-Jul-18 22:33N 42°17' E 003°56'3 3.3
2014-Jul-18 21:32N 42°16' E 004°00'6 6.1
2014-Jul-18 20:33N 42°13' E 004°07'0 0.1
2014-Jul-18 19:34N 42°13' E 004°07'7 7.0
2014-Jul-18 18:33N 42°11' E 004°16'2 1.7
2014-Jul-18 17:33N 42°10' E 004°18'3 3.1
2014-Jul-18 16:34N 42°09' E 004°22'7 6.6
2014-Jul-18 15:33N 42°06' E 004°30'0 0.1
2014-Jul-18 14:33N 42°06' E 004°30'4 4.3
2014-Jul-18 13:34N 42°02' E 004°28'5 4.5
2014-Jul-18 12:33N 41°58' E 004°25'0 0.1
2014-Jul-18 11:33N 41°58' E 004°25'7 6.3
2014-Jul-18 10:32N 41°56' E 004°17'3 3.1
2014-Jul-18 09:34N 41°55' E 004°13'0 0.0
2014-Jul-18 08:33N 41°55' E 004°13'8 8.0
2014-Jul-18 07:33N 41°52' E 004°03'2 1.7
2014-Jul-18 06:34N 41°51' E 004°01'0 0.2
2014-Jul-18 05:33N 41°51' E 004°01'9 7.9
2014-Jul-18 04:26N 41°52' E 003°49'0 0.0
2014-Jul-18 03:33N 41°52' E 003°49'4 4.0
2014-Jul-18 02:32N 41°53' E 003°44'7 7.0
2014-Jul-18 01:33N 41°55' E 003°35'1 0.9
2014-Jul-18 00:34N 41°54' E 003°35'0 0.2
2014-Jul-17 23:34N 41°54' E 003°35'9 8.5
2014-Jul-17 22:34N 41°54' E 003°47'1111.3
2014-Jul-17 21:33N 41°54' E 004°02'1111.3
2014-Jul-17 20:32N 41°54' E 004°17'1110.9
2014-Jul-17 19:33N 41°54' E 004°32'1211.2
2014-Jul-17 18:29N 41°54' E 004°48'1211.4
2014-Jul-17 17:27N 41°54' E 005°04'7 3.8
2014-Jul-17 15:34N 41°54' E 005°13'5 4.7
2014-Jul-17 14:33N 41°52' E 005°19'9 9.3
2014-Jul-17 13:34N 41°48' E 005°30'2 2.4
2014-Jul-17 12:34N 41°47' E 005°33'0 0.2
2014-Jul-17 11:32N 41°47' E 005°33'8 8.5
2014-Jul-17 10:34N 41°43' E 005°43'9 9.3
2014-Jul-17 09:34N 41°38' E 005°53'7 6.5
2014-Jul-17 08:33N 41°35' E 006°01'15 4.7
2014-Jul-17 05:19N 41°28' E 006°19'7 5.6
2014-Jul-17 04:09N 41°25' E 006°27'0 0.1
2014-Jul-17 03:19N 41°25' E 006°27'0 0.2
2014-Jul-17 02:34N 41°25' E 006°27'9 8.1
2014-Jul-17 01:26N 41°21' E 006°38'8 9.3
2014-Jul-17 00:33N 41°17' E 006°48'6 5.4
2014-Jul-16 23:29N 41°14' E 006°54'1 0.7
2014-Jul-16 22:33N 41°14' E 006°55'0 0.0
2014-Jul-16 21:32N 41°14' E 006°55'4 4.3
2014-Jul-16 20:33N 41°12' E 007°00'10 9.8
2014-Jul-16 19:33N 41°08' E 007°12'5 5.3
2014-Jul-16 18:33N 41°05' E 007°18'0 0.1
2014-Jul-16 17:27N 41°05' E 007°18'2 2.7
2014-Jul-16 16:33N 41°04' E 007°21'10 9.1
2014-Jul-16 15:31N 41°00' E 007°32'5 2.4
2014-Jul-16 13:28N 40°58' E 007°38'2 2.6
2014-Jul-16 12:31N 40°57' E 007°41'7 5.4
2014-Jul-16 11:09N 40°54' E 007°50'35 3.7
2014-Jul-16 01:33N 40°27' E 007°20'4711.0
2014-Jul-15 21:17N 40°00' E 006°30'0 0.2
2014-Jul-15 20:28N 40°00' E 006°30'51 5.5
2014-Jul-15 11:19N 40°43' E 005°55'1 0.9
2014-Jul-15 10:32N 40°44' E 005°55'  
Track history (hours):
 
Tides and Currents Weather Stations Pressure Air Temp Water Temp Dewpoint Dewpoint Depression Visibility Wind Speed Wind Dir Waves Ship Positions

Oceanographic research ship Le Suroit (France)

Detailed information on ship capabilities available from University of Delaware's Ocean Information Center.

Last reported at 2014-Jul-25 09:32 UTC. Time now 2014-Jul-28 22:43 UTC.
Position N 43°06' E 005°53'.

Length 57 m; beam 11 m.

MMSI: 227223000.

Date/timePositionNaut miles runAvg speedWind from/ knotsBaromVisibWave heightAir tempDewpointWater temp
2014-Jul-25 09:32N 43°06' E 005°53'0 0.0
2014-Jul-25 08:32N 43°06' E 005°53'0 0.0
2014-Jul-25 07:33N 43°06' E 005°53'0 0.0
2014-Jul-25 06:33N 43°06' E 005°53'0 0.0
2014-Jul-25 05:33N 43°06' E 005°53'0 0.0
2014-Jul-25 04:33N 43°06' E 005°53'0 0.0
2014-Jul-25 03:33N 43°06' E 005°53'0 0.0
2014-Jul-25 02:33N 43°06' E 005°53'0 0.0
2014-Jul-25 01:33N 43°06' E 005°53'0 0.0
2014-Jul-25 00:33N 43°06' E 005°53'0 0.0
2014-Jul-24 23:33N 43°06' E 005°53'0 0.0
2014-Jul-24 22:33N 43°06' E 005°53'0 0.0
2014-Jul-24 21:33N 43°06' E 005°53'0 0.0
2014-Jul-24 20:33N 43°06' E 005°53'0 0.0
2014-Jul-24 19:20N 43°06' E 005°53'0 0.0
2014-Jul-24 18:32N 43°06' E 005°53'0 0.0
2014-Jul-24 17:23N 43°06' E 005°53'0 0.0
2014-Jul-24 16:28N 43°06' E 005°53'0 0.0
2014-Jul-24 15:18N 43°06' E 005°53'0 0.0
2014-Jul-24 14:29N 43°06' E 005°53'0 0.0
2014-Jul-24 13:33N 43°06' E 005°53'0 0.0
2014-Jul-24 12:32N 43°06' E 005°53'0 0.0
2014-Jul-24 11:33N 43°06' E 005°53'0 0.0
2014-Jul-24 10:32N 43°06' E 005°53'0 0.0
2014-Jul-24 09:33N 43°06' E 005°53'0 0.0
2014-Jul-24 08:33N 43°06' E 005°53'0 0.0
2014-Jul-24 07:33N 43°06' E 005°53'0 0.0
2014-Jul-24 06:33N 43°06' E 005°53'0 0.0
2014-Jul-24 05:33N 43°06' E 005°53'0 0.0
2014-Jul-24 04:33N 43°06' E 005°53'0 0.0
2014-Jul-24 03:33N 43°06' E 005°53'0 0.0
2014-Jul-24 02:33N 43°06' E 005°53'0 0.0
2014-Jul-24 01:33N 43°06' E 005°53'0 0.0
2014-Jul-24 00:33N 43°06' E 005°53'0 0.0
2014-Jul-23 23:33N 43°06' E 005°53'0 0.0
2014-Jul-23 22:33N 43°06' E 005°53'0 0.0
2014-Jul-23 21:31N 43°06' E 005°53'0 0.0
2014-Jul-23 20:33N 43°06' E 005°53'0 0.0
2014-Jul-23 19:33N 43°06' E 005°53'0 0.0
2014-Jul-23 18:33N 43°06' E 005°53'0 0.0
2014-Jul-23 17:27N 43°06' E 005°53'0 0.0
2014-Jul-23 16:33N 43°06' E 005°53'0 0.0
2014-Jul-23 15:25N 43°06' E 005°53'0 0.0
2014-Jul-23 14:31N 43°06' E 005°53'0 0.0
2014-Jul-23 13:27N 43°06' E 005°53'0 0.0
2014-Jul-23 12:19N 43°06' E 005°53'0 0.0
2014-Jul-23 11:28N 43°06' E 005°53'0 0.0
2014-Jul-23 10:24N 43°06' E 005°53'0 0.0
2014-Jul-23 09:32N 43°06' E 005°53'0 0.0
2014-Jul-23 08:33N 43°06' E 005°53'0 0.0
2014-Jul-23 07:33N 43°06' E 005°53'0 0.0
2014-Jul-23 06:33N 43°06' E 005°53'0 0.0
2014-Jul-23 05:33N 43°06' E 005°53'0 0.0
2014-Jul-23 04:33N 43°06' E 005°53'0 0.0
2014-Jul-23 03:33N 43°06' E 005°53'0 0.0
2014-Jul-23 02:33N 43°06' E 005°53'0 0.0
2014-Jul-23 01:33N 43°06' E 005°53'0 0.0
2014-Jul-23 00:33N 43°06' E 005°53'0 0.0
2014-Jul-22 23:33N 43°06' E 005°53'0 0.0
2014-Jul-22 22:33N 43°06' E 005°53'0 0.0
2014-Jul-22 21:32N 43°06' E 005°53'0 0.0
2014-Jul-22 20:33N 43°06' E 005°53'0 0.0
2014-Jul-22 19:33N 43°06' E 005°53'0 0.0
2014-Jul-22 18:32N 43°06' E 005°53'0 0.0
2014-Jul-22 17:33N 43°06' E 005°53'0 0.0
2014-Jul-22 16:25N 43°06' E 005°53'0 0.1
2014-Jul-22 14:33N 43°06' E 005°53'5 4.8
2014-Jul-22 13:33N 43°03' E 005°58'11 9.9
2014-Jul-22 12:30N 43°01' E 005°43'2310.7
2014-Jul-22 10:23N 43°02' E 005°12'0 0.2
2014-Jul-22 09:27N 43°02' E 005°12'0 0.5
2014-Jul-22 08:29N 43°02' E 005°12'36 3.5
2014-Jul-21 22:09N 42°27' E 005°00'4 5.8
2014-Jul-21 21:24N 42°25' E 004°56'6 6.1
2014-Jul-21 20:27N 42°19' E 004°54'0 0.2
2014-Jul-21 20:13N 42°19' E 004°54'0 0.2
2014-Jul-21 19:29N 42°19' E 004°54'1 1.3
2014-Jul-21 18:28N 42°18' E 004°54'1010.0
2014-Jul-21 17:30N 42°09' E 004°49'32 9.8
2014-Jul-21 14:14N 41°39' E 004°33'21 4.4
2014-Jul-21 09:27N 41°18' E 004°28'0 0.2
2014-Jul-21 07:24N 41°18' E 004°28'0 0.1
2014-Jul-21 06:22N 41°18' E 004°28'42 1.9
2014-Jul-20 08:29N 40°40' E 004°07'6 4.6
2014-Jul-20 07:06N 40°46' E 004°06'0 0.0
2014-Jul-20 06:30N 40°46' E 004°06'6 4.5
2014-Jul-20 05:12N 40°51' E 004°03'7 8.3
2014-Jul-20 04:21N 40°58' E 003°60'4 4.7
2014-Jul-20 03:27N 41°02' E 003°58'0 0.1
2014-Jul-20 02:33N 41°02' E 003°58'1 0.8
2014-Jul-20 01:34N 41°01' E 003°57'2 2.3
2014-Jul-20 00:33N 41°04' E 003°57'9 8.9
2014-Jul-19 23:33N 41°12' E 003°53'8 8.3
2014-Jul-19 22:33N 41°20' E 003°50'0 0.1
2014-Jul-19 21:33N 41°20' E 003°50'3 2.4
2014-Jul-19 20:27N 41°23' E 003°49'10 8.6
2014-Jul-19 19:15N 41°32' E 003°45'1 1.0
2014-Jul-19 18:33N 41°33' E 003°45'0 0.2
2014-Jul-19 17:31N 41°33' E 003°45'8 4.1
2014-Jul-19 15:33N 41°38' E 003°36'6 5.9
2014-Jul-19 14:32N 41°42' E 003°30'7 6.4
2014-Jul-19 13:29N 41°49' E 003°30'2310.7
2014-Jul-19 11:22N 42°11' E 003°32'1010.7
2014-Jul-19 10:29N 42°21' E 003°32'5 5.2
2014-Jul-19 09:33N 42°26' E 003°32'0 0.1
2014-Jul-19 08:33N 42°26' E 003°32'0 0.2
2014-Jul-19 07:33N 42°26' E 003°32'1 0.8
2014-Jul-19 06:24N 42°27' E 003°31'1 1.6
2014-Jul-19 05:30N 42°25' E 003°32'0 0.3
2014-Jul-19 04:33N 42°26' E 003°33'1 0.7
2014-Jul-19 03:24N 42°25' E 003°33'8 8.3
2014-Jul-19 02:28N 42°21' E 003°42'2 2.2
2014-Jul-19 01:32N 42°20' E 003°44'0 0.3
2014-Jul-19 00:32N 42°20' E 003°44'6 6.3
2014-Jul-18 23:33N 42°18' E 003°52'3 3.2
2014-Jul-18 22:33N 42°17' E 003°56'3 3.3
2014-Jul-18 21:32N 42°16' E 004°00'6 6.1
2014-Jul-18 20:33N 42°13' E 004°07'0 0.1
2014-Jul-18 19:34N 42°13' E 004°07'7 7.0
2014-Jul-18 18:33N 42°11' E 004°16'2 1.7
2014-Jul-18 17:33N 42°10' E 004°18'3 3.1
2014-Jul-18 16:34N 42°09' E 004°22'7 6.6
2014-Jul-18 15:33N 42°06' E 004°30'0 0.1
2014-Jul-18 14:33N 42°06' E 004°30'4 4.3
2014-Jul-18 13:34N 42°02' E 004°28'5 4.5
2014-Jul-18 12:33N 41°58' E 004°25'0 0.1
2014-Jul-18 11:33N 41°58' E 004°25'7 6.3
2014-Jul-18 10:32N 41°56' E 004°17'3 3.1
2014-Jul-18 09:34N 41°55' E 004°13'0 0.0
2014-Jul-18 08:33N 41°55' E 004°13'8 8.0
2014-Jul-18 07:33N 41°52' E 004°03'2 1.7
2014-Jul-18 06:34N 41°51' E 004°01'0 0.2
2014-Jul-18 05:33N 41°51' E 004°01'9 7.9
2014-Jul-18 04:26N 41°52' E 003°49'0 0.0
2014-Jul-18 03:33N 41°52' E 003°49'4 4.0
2014-Jul-18 02:32N 41°53' E 003°44'7 7.0
2014-Jul-18 01:33N 41°55' E 003°35'1 0.9
2014-Jul-18 00:34N 41°54' E 003°35'0 0.2
2014-Jul-17 23:34N 41°54' E 003°35'9 8.5
2014-Jul-17 22:34N 41°54' E 003°47'1111.3
2014-Jul-17 21:33N 41°54' E 004°02'1111.3
2014-Jul-17 20:32N 41°54' E 004°17'1110.9
2014-Jul-17 19:33N 41°54' E 004°32'1211.2
2014-Jul-17 18:29N 41°54' E 004°48'1211.4
2014-Jul-17 17:27N 41°54' E 005°04'7 3.8
2014-Jul-17 15:34N 41°54' E 005°13'5 4.7
2014-Jul-17 14:33N 41°52' E 005°19'9 9.3
2014-Jul-17 13:34N 41°48' E 005°30'2 2.4
2014-Jul-17 12:34N 41°47' E 005°33'0 0.2
2014-Jul-17 11:32N 41°47' E 005°33'8 8.5
2014-Jul-17 10:34N 41°43' E 005°43'9 9.3
2014-Jul-17 09:34N 41°38' E 005°53'7 6.5
2014-Jul-17 08:33N 41°35' E 006°01'15 4.7
2014-Jul-17 05:19N 41°28' E 006°19'7 5.6
2014-Jul-17 04:09N 41°25' E 006°27'0 0.1
2014-Jul-17 03:19N 41°25' E 006°27'0 0.2
2014-Jul-17 02:34N 41°25' E 006°27'9 8.1
2014-Jul-17 01:26N 41°21' E 006°38'8 9.3
2014-Jul-17 00:33N 41°17' E 006°48'6 5.4
2014-Jul-16 23:29N 41°14' E 006°54'1 0.7
2014-Jul-16 22:33N 41°14' E 006°55'0 0.0
2014-Jul-16 21:32N 41°14' E 006°55'4 4.3
2014-Jul-16 20:33N 41°12' E 007°00'10 9.8
2014-Jul-16 19:33N 41°08' E 007°12'5 5.3
2014-Jul-16 18:33N 41°05' E 007°18'0 0.1
2014-Jul-16 17:27N 41°05' E 007°18'2 2.7
2014-Jul-16 16:33N 41°04' E 007°21'10 9.1
2014-Jul-16 15:31N 41°00' E 007°32'5 2.4
2014-Jul-16 13:28N 40°58' E 007°38'2 2.6
2014-Jul-16 12:31N 40°57' E 007°41'7 5.4
2014-Jul-16 11:09N 40°54' E 007°50'35 3.7
2014-Jul-16 01:33N 40°27' E 007°20'4711.0
2014-Jul-15 21:17N 40°00' E 006°30'0 0.2
2014-Jul-15 20:28N 40°00' E 006°30'51 5.5
2014-Jul-15 11:19N 40°43' E 005°55'1 0.9
2014-Jul-15 10:32N 40°44' E 005°55'  

Dump ship's entire track history